createdAt,value
2022-09-13T00:00:54.752Z,32.13
2022-09-13T00:03:33.637Z,32.31
2022-09-13T00:06:08.808Z,31.74
2022-09-13T00:08:37.194Z,32.35
2022-09-13T00:11:05.814Z,32.52
2022-09-13T00:13:35.503Z,32.13
2022-09-13T00:16:05.453Z,32.52
2022-09-13T00:18:34.819Z,32.48
2022-09-13T00:21:07.935Z,31.98
2022-09-13T00:23:36.351Z,32.55
2022-09-13T00:26:06.515Z,32.36
2022-09-13T00:28:36.166Z,32.26
2022-09-13T00:31:05.974Z,32.35
2022-09-13T00:33:34.518Z,32.58
2022-09-13T00:36:05.401Z,32.11
2022-09-13T00:38:33.983Z,32.34
2022-09-13T00:41:02.062Z,32.49
2022-09-13T00:43:45.521Z,31.50
2022-09-13T00:46:27.998Z,32.08
2022-09-13T00:48:58.841Z,32.26
2022-09-13T00:51:27.726Z,32.55
2022-09-13T00:53:57.354Z,32.34
2022-09-13T00:56:28.579Z,32.36
2022-09-13T00:59:01.472Z,32.07
2022-09-13T01:01:33.401Z,31.96
2022-09-13T01:04:02.620Z,32.48
2022-09-13T01:06:33.272Z,32.37
2022-09-13T01:09:04.274Z,32.41
2022-09-13T01:11:37.889Z,32.16
2022-09-13T01:14:08.407Z,32.48
2022-09-13T01:16:36.813Z,33.01
2022-09-13T01:19:05.373Z,33.12
2022-09-13T01:22:03.927Z,31.88
2022-09-13T01:25:09.964Z,31.80
2022-09-13T01:28:00.108Z,32.09
2022-09-13T01:30:32.445Z,32.44
2022-09-13T01:33:17.067Z,31.78
2022-09-13T01:35:56.475Z,32.03
2022-09-13T01:38:38.096Z,31.99
2022-09-13T01:41:13.713Z,32.29
2022-09-13T01:43:50.335Z,32.34
2022-09-13T01:46:25.015Z,32.57
2022-09-13T01:48:57.206Z,32.36
2022-09-13T01:51:30.477Z,32.25
2022-09-13T01:54:14.893Z,32.08
2022-09-13T01:56:50.081Z,32.35
2022-09-13T01:59:24.223Z,32.29
2022-09-13T02:01:58.097Z,32.35
2022-09-13T02:04:28.958Z,32.61
2022-09-13T02:07:02.422Z,32.44
2022-09-13T02:09:33.208Z,32.67
2022-09-13T02:12:06.543Z,32.40
2022-09-13T02:14:37.317Z,32.51
2022-09-13T02:17:08.850Z,32.45
2022-09-13T02:19:39.494Z,33.09
2022-09-13T02:22:09.476Z,33.11
2022-09-13T02:24:40.566Z,32.71
2022-09-13T02:27:11.718Z,33.25
2022-09-13T02:29:42.045Z,32.96
2022-09-13T02:32:15.852Z,32.82
2022-09-13T02:34:47.443Z,32.79
2022-09-13T02:37:16.089Z,33.41
2022-09-13T02:39:49.246Z,32.75
2022-09-13T02:42:20.059Z,33.15
2022-09-13T02:44:49.963Z,32.88
2022-09-13T02:47:30.437Z,32.45
2022-09-13T02:50:09.377Z,32.56
2022-09-13T02:52:46.373Z,32.33
2022-09-13T02:55:19.362Z,32.69
2022-09-13T02:57:55.541Z,32.49
2022-09-13T03:00:23.993Z,33.13
2022-09-13T03:02:54.763Z,32.82
2022-09-13T03:05:23.210Z,33.29
2022-09-13T03:07:51.965Z,33.27
2022-09-13T03:10:20.745Z,33.63
2022-09-13T03:13:02.567Z,32.75
2022-09-13T03:15:41.927Z,32.71
2022-09-13T03:18:20.615Z,32.96
2022-09-13T03:20:59.569Z,32.55
2022-09-13T03:23:42.285Z,32.64
2022-09-13T03:26:22.629Z,32.65
2022-09-13T03:28:56.737Z,32.84
2022-09-13T03:31:30.309Z,33.02
2022-09-13T03:34:03.673Z,33.05
2022-09-13T03:36:36.541Z,33.30
2022-09-13T03:39:14.833Z,33.31
2022-09-13T03:41:46.132Z,33.78
2022-09-13T03:44:15.840Z,33.86
2022-09-13T03:46:46.009Z,33.93
2022-09-13T03:49:17.113Z,33.89
2022-09-13T03:51:47.293Z,34.18
2022-09-13T03:54:19.501Z,33.98
2022-09-13T03:57:11.884Z,33.43
2022-09-13T03:59:43.457Z,34.13
2022-09-13T04:02:12.650Z,34.24
2022-09-13T04:04:43.389Z,34.11
2022-09-13T04:07:13.697Z,34.14
2022-09-13T04:09:42.026Z,34.38
2022-09-13T04:12:11.146Z,34.51
2022-09-13T04:14:39.482Z,34.46
2022-09-13T04:17:07.771Z,34.34
2022-09-13T04:19:36.001Z,34.16
2022-09-13T04:22:06.168Z,33.84
2022-09-13T04:24:34.411Z,34.34
2022-09-13T04:27:02.751Z,34.06
2022-09-13T04:29:32.015Z,34.03
2022-09-13T04:32:00.533Z,34.37
2022-09-13T04:34:28.807Z,34.20
2022-09-13T04:36:57.290Z,34.22
2022-09-13T04:39:26.867Z,34.17
2022-09-13T04:41:55.358Z,34.38
2022-09-13T04:44:24.694Z,34.54
2022-09-13T04:46:53.165Z,34.36
2022-09-13T04:49:22.105Z,34.28
2022-09-13T04:51:50.975Z,33.78
2022-09-13T04:54:19.076Z,33.28
2022-09-13T04:56:49.033Z,32.48
2022-09-13T04:59:17.681Z,32.32
2022-09-13T05:01:46.060Z,31.70
2022-09-13T05:04:14.687Z,30.73
2022-09-13T05:06:43.134Z,30.74
2022-09-13T05:09:14.211Z,29.39
2022-09-13T05:11:43.161Z,28.76
2022-09-13T05:14:13.356Z,27.20
2022-09-13T05:16:41.954Z,26.77
2022-09-13T05:19:10.724Z,26.39
2022-09-13T05:21:39.608Z,25.86
2022-09-13T05:24:07.836Z,24.96
2022-09-13T05:26:36.514Z,24.34
2022-09-13T05:29:05.456Z,24.05
2022-09-13T05:31:37.009Z,23.38
2022-09-13T05:34:07.749Z,22.58
2022-09-13T05:36:36.255Z,22.36
2022-09-13T05:39:29.523Z,21.16
2022-09-13T05:41:54.160Z,21.13
2022-09-13T05:44:23.110Z,19.69
2022-09-13T05:46:52.685Z,19.00
2022-09-13T05:49:21.060Z,18.93
2022-09-13T05:51:49.410Z,18.88
2022-09-13T05:54:17.839Z,17.76
2022-09-13T05:56:46.286Z,16.69
2022-09-13T05:59:15.279Z,16.98
2022-09-13T06:01:43.902Z,16.62
2022-09-13T06:04:14.654Z,16.14
2022-09-13T06:06:43.282Z,15.20
2022-09-13T06:09:12.080Z,15.26
2022-09-13T06:11:40.808Z,15.31
2022-09-13T06:14:08.937Z,14.75
2022-09-13T06:16:37.483Z,15.11
2022-09-13T06:19:05.725Z,15.01
2022-09-13T06:21:35.358Z,14.07
2022-09-13T06:24:04.053Z,14.43
2022-09-13T06:26:32.948Z,14.37
2022-09-13T06:29:01.197Z,14.32
2022-09-13T06:31:29.874Z,14.05
2022-09-13T06:34:00.028Z,13.91
2022-09-13T06:36:28.268Z,13.84
2022-09-13T06:39:00.708Z,13.45
2022-09-13T06:41:29.665Z,13.35
2022-09-13T06:43:58.987Z,13.81
2022-09-13T06:46:28.131Z,13.49
2022-09-13T06:48:57.885Z,13.10
2022-09-13T06:51:27.083Z,12.72
2022-09-13T06:53:56.799Z,12.80
2022-09-13T06:56:28.772Z,12.34
2022-09-13T06:58:58.278Z,12.39
2022-09-13T07:01:28.606Z,12.31
2022-09-13T07:04:00.222Z,11.71
2022-09-13T07:06:30.380Z,11.41
2022-09-13T07:08:59.781Z,11.28
2022-09-13T07:11:32.023Z,11.40
2022-09-13T07:14:01.941Z,11.81
2022-09-13T07:16:31.457Z,11.67
2022-09-13T07:19:00.811Z,11.44
2022-09-13T07:21:30.274Z,11.21
2022-09-13T07:23:58.428Z,10.96
2022-09-13T07:26:27.536Z,9.95
2022-09-13T07:28:59.922Z,9.31
2022-09-13T07:31:29.583Z,9.57
2022-09-13T07:33:59.761Z,10.56
2022-09-13T07:36:29.908Z,10.93
2022-09-13T07:38:59.233Z,10.70
2022-09-13T07:41:29.335Z,10.43
2022-09-13T07:44:00.769Z,9.92
2022-09-13T07:46:32.489Z,9.33
2022-09-13T07:49:02.104Z,9.70
2022-09-13T07:51:31.610Z,9.21
2022-09-13T07:54:01.373Z,9.47
2022-09-13T07:56:31.233Z,9.82
2022-09-13T07:59:02.258Z,9.46
2022-09-13T08:01:34.484Z,8.78
2022-09-13T08:04:05.163Z,7.98
2022-09-13T08:06:34.792Z,7.33
2022-09-13T08:09:03.395Z,7.14
2022-09-13T08:11:33.268Z,6.75
2022-09-13T08:14:03.575Z,6.14
2022-09-13T08:16:32.343Z,5.69
2022-09-13T08:19:03.266Z,5.08
2022-09-13T08:21:34.746Z,5.10
2022-09-13T08:24:03.778Z,5.74
2022-09-13T08:26:33.803Z,6.17
2022-09-13T08:29:05.132Z,6.76
2022-09-13T08:31:34.537Z,7.13
2022-09-13T08:34:03.104Z,6.99
2022-09-13T08:36:31.690Z,7.12
2022-09-13T08:39:02.045Z,6.78
2022-09-13T08:41:57.435Z,6.30
2022-09-13T08:44:30.242Z,6.57
2022-09-13T08:47:08.240Z,6.71
2022-09-13T08:49:41.563Z,7.08
2022-09-13T08:52:21.967Z,6.70
2022-09-13T08:54:50.867Z,6.04
2022-09-13T08:57:24.073Z,6.13
2022-09-13T08:59:59.324Z,5.93
2022-09-13T09:02:58.032Z,5.55
2022-09-13T09:05:28.905Z,6.21
2022-09-13T09:08:00.915Z,6.12
2022-09-13T09:10:31.261Z,6.76
2022-09-13T09:13:02.651Z,6.50
2022-09-13T09:15:36.134Z,7.05
2022-09-13T09:18:07.308Z,7.74
2022-09-13T09:20:39.542Z,7.14
2022-09-13T09:23:19.073Z,6.80
2022-09-13T09:25:52.168Z,5.93
2022-09-13T09:28:21.022Z,6.25
2022-09-13T09:31:00.146Z,5.66
2022-09-13T09:33:43.053Z,4.74
2022-09-13T09:36:17.411Z,3.78
2022-09-13T09:38:46.232Z,3.63
2022-09-13T09:41:19.815Z,4.61
2022-09-13T09:43:52.922Z,5.81
2022-09-13T09:46:27.298Z,6.96
2022-09-13T09:48:58.326Z,7.01
2022-09-13T09:51:27.272Z,6.46
2022-09-13T09:54:02.133Z,5.94
2022-09-13T09:56:32.380Z,5.72
2022-09-13T09:59:00.687Z,5.60
2022-09-13T10:01:32.452Z,4.77
2022-09-13T10:04:08.783Z,5.03
2022-09-13T10:06:39.049Z,6.24
2022-09-13T10:09:07.700Z,6.09
2022-09-13T10:11:45.353Z,6.37
2022-09-13T10:14:33.241Z,6.42
2022-09-13T10:17:11.444Z,6.42
2022-09-13T10:19:40.218Z,7.21
2022-09-13T10:22:13.097Z,6.90
2022-09-13T10:24:41.837Z,7.35
2022-09-13T10:27:23.451Z,6.43
2022-09-13T10:29:54.758Z,6.31
2022-09-13T10:32:25.773Z,5.82
2022-09-13T10:34:54.337Z,6.44
2022-09-13T10:37:24.228Z,6.35
2022-09-13T10:39:59.013Z,5.68
2022-09-13T10:42:28.177Z,4.77
2022-09-13T10:44:58.059Z,4.38
2022-09-13T10:47:31.268Z,3.59
2022-09-13T10:50:00.506Z,3.06
2022-09-13T10:52:34.717Z,2.66
2022-09-13T10:55:25.503Z,2.48
2022-09-13T10:57:55.136Z,3.12
2022-09-13T11:00:25.757Z,3.14
2022-09-13T11:03:04.557Z,2.44
2022-09-13T11:05:37.360Z,2.67
2022-09-13T11:08:14.539Z,2.24
2022-09-13T11:10:51.190Z,1.67
2022-09-13T11:13:26.401Z,1.83
2022-09-13T11:15:59.522Z,2.23
2022-09-13T11:18:56.412Z,2.53
2022-09-13T11:21:46.636Z,2.36
2022-09-13T11:24:24.914Z,2.03
2022-09-13T11:26:59.516Z,2.92
2022-09-13T11:29:37.020Z,3.00
2022-09-13T11:32:14.653Z,2.96
2022-09-13T11:34:51.379Z,2.97
2022-09-13T11:37:30.388Z,2.75
2022-09-13T11:40:09.291Z,3.25
2022-09-13T11:42:45.174Z,4.32
2022-09-13T11:45:24.354Z,5.12
2022-09-13T11:48:16.229Z,6.14
2022-09-13T11:50:53.032Z,7.30
2022-09-13T11:53:38.523Z,7.70
2022-09-13T11:56:08.677Z,8.69
2022-09-13T11:58:41.116Z,9.54
2022-09-13T12:01:12.569Z,9.92
2022-09-13T12:03:45.094Z,10.54
2022-09-13T12:06:20.508Z,10.71
2022-09-13T12:08:51.640Z,11.35
2022-09-13T12:11:23.294Z,11.45
2022-09-13T12:13:53.343Z,11.96
2022-09-13T12:16:25.174Z,12.47
2022-09-13T12:18:56.971Z,12.74
2022-09-13T12:21:29.290Z,12.49
2022-09-13T12:24:02.834Z,13.08
2022-09-13T12:26:33.439Z,13.37
2022-09-13T12:29:05.591Z,13.22
2022-09-13T12:31:34.075Z,13.47
2022-09-13T12:34:06.959Z,13.36
2022-09-13T12:36:46.904Z,13.38
2022-09-13T12:39:35.679Z,13.15
2022-09-13T12:42:27.508Z,13.60
2022-09-13T12:45:11.643Z,13.28
2022-09-13T12:48:12.597Z,13.09
2022-09-13T12:50:46.343Z,13.47
2022-09-13T12:53:28.287Z,13.42
2022-09-13T12:56:04.999Z,13.80
2022-09-13T12:58:53.516Z,13.46
2022-09-13T13:01:23.042Z,14.27
2022-09-13T13:03:54.660Z,13.94
2022-09-13T13:06:28.574Z,13.92
2022-09-13T13:08:59.840Z,13.60
2022-09-13T13:11:31.485Z,14.48
2022-09-13T13:14:02.429Z,14.66
2022-09-13T13:16:31.597Z,14.13
2022-09-13T13:19:00.512Z,14.90
2022-09-13T13:21:32.361Z,15.12
2022-09-13T13:24:37.980Z,14.95
2022-09-13T13:27:46.246Z,15.20
2022-09-13T13:30:40.535Z,15.18
2022-09-13T13:33:16.597Z,15.01
2022-09-13T13:35:45.057Z,15.65
2022-09-13T13:38:18.361Z,15.92
2022-09-13T13:40:50.672Z,15.78
2022-09-13T13:43:33.840Z,15.31
2022-09-13T13:46:28.372Z,15.56
2022-09-13T13:48:56.953Z,16.09
2022-09-13T13:51:27.779Z,15.91
2022-09-13T13:53:59.769Z,15.95
2022-09-13T13:56:35.219Z,15.48
2022-09-13T13:59:10.772Z,15.80
2022-09-13T14:01:45.088Z,15.77
2022-09-13T14:04:54.885Z,15.68
2022-09-13T14:07:34.855Z,15.56
2022-09-13T14:10:07.051Z,15.94
2022-09-13T14:12:47.440Z,16.27
2022-09-13T14:15:28.345Z,16.38
2022-09-13T14:18:32.294Z,16.43
2022-09-13T14:21:02.011Z,17.14
2022-09-13T14:23:31.285Z,17.27
2022-09-13T14:26:01.093Z,17.45
2022-09-13T14:28:29.794Z,17.76
2022-09-13T14:31:00.255Z,17.27
2022-09-13T14:33:32.187Z,16.75
2022-09-13T14:36:03.242Z,17.00
2022-09-13T14:38:35.457Z,16.84
2022-09-13T14:41:15.252Z,16.65
2022-09-13T14:43:44.072Z,17.30
2022-09-13T14:46:18.929Z,16.93
2022-09-13T14:48:51.802Z,16.91
2022-09-13T14:51:23.170Z,17.07
2022-09-13T14:53:52.298Z,16.44
2022-09-13T14:56:29.081Z,17.50
2022-09-13T14:58:59.710Z,17.92
2022-09-13T15:01:31.670Z,17.91
2022-09-13T15:04:01.502Z,17.98
2022-09-13T15:06:31.617Z,17.97
2022-09-13T15:09:02.404Z,18.00
2022-09-13T15:11:34.055Z,18.00
2022-09-13T15:14:04.539Z,18.11
2022-09-13T15:16:34.453Z,18.24
2022-09-13T15:19:32.053Z,17.36
2022-09-13T15:22:12.801Z,18.05
2022-09-13T15:24:45.037Z,18.40
2022-09-13T15:27:26.343Z,18.22
2022-09-13T15:29:56.679Z,19.16
2022-09-13T15:32:34.830Z,18.77
2022-09-13T15:35:03.971Z,19.23
2022-09-13T15:37:35.930Z,19.32
2022-09-13T15:40:14.815Z,19.00
2022-09-13T15:42:47.250Z,19.44
2022-09-13T15:45:15.677Z,19.78
2022-09-13T15:47:48.012Z,19.56
2022-09-13T15:50:25.040Z,19.51
2022-09-13T15:52:53.253Z,20.26
2022-09-13T15:55:21.756Z,20.04
2022-09-13T15:57:50.191Z,20.44
2022-09-13T16:00:21.549Z,20.10
2022-09-13T16:02:51.862Z,19.84
2022-09-13T16:05:20.578Z,20.30
2022-09-13T16:07:49.072Z,19.83
2022-09-13T16:10:20.732Z,19.89
2022-09-13T16:12:49.202Z,20.02
2022-09-13T16:15:18.033Z,20.31
2022-09-13T16:17:46.500Z,20.06
2022-09-13T16:20:17.110Z,19.75
2022-09-13T16:22:45.382Z,20.01
2022-09-13T16:25:14.362Z,19.83
2022-09-13T16:27:43.105Z,20.11
2022-09-13T16:30:13.278Z,19.58
2022-09-13T16:32:42.488Z,20.03
2022-09-13T16:35:11.327Z,20.23
2022-09-13T16:37:41.222Z,19.99
2022-09-13T16:40:10.754Z,20.01
2022-09-13T16:42:39.491Z,20.29
2022-09-13T16:45:09.070Z,20.43
2022-09-13T16:47:37.810Z,20.36
2022-09-13T16:50:07.700Z,20.34
2022-09-13T16:52:36.366Z,20.52
2022-09-13T16:55:08.447Z,20.77
2022-09-13T16:57:37.419Z,21.24
2022-09-13T17:00:09.177Z,21.58
2022-09-13T17:02:37.877Z,21.79
2022-09-13T17:05:08.874Z,22.04
2022-09-13T17:07:38.098Z,22.63
2022-09-13T17:10:09.885Z,22.02
2022-09-13T17:12:38.300Z,22.44
2022-09-13T17:15:08.096Z,22.41
2022-09-13T17:17:36.764Z,22.46
2022-09-13T17:20:09.411Z,22.33
2022-09-13T17:22:38.355Z,22.87
2022-09-13T17:25:09.502Z,22.68
2022-09-13T17:27:38.756Z,23.15
2022-09-13T17:30:09.322Z,23.26
2022-09-13T17:32:37.820Z,23.52
2022-09-13T17:35:07.788Z,23.42
2022-09-13T17:37:36.900Z,23.72
2022-09-13T17:40:06.359Z,23.80
2022-09-13T17:42:36.591Z,23.59
2022-09-13T17:45:06.383Z,23.83
2022-09-13T17:47:35.359Z,24.00
2022-09-13T17:50:06.312Z,24.36
2022-09-13T17:52:35.426Z,23.88
2022-09-13T17:55:03.738Z,24.09
2022-09-13T17:57:32.278Z,23.61
2022-09-13T18:00:02.948Z,23.45
2022-09-13T18:02:31.344Z,24.09
2022-09-13T18:05:04.597Z,23.88
2022-09-13T18:07:34.218Z,24.08
2022-09-13T18:10:03.063Z,23.97
2022-09-13T18:12:32.168Z,24.10
2022-09-13T18:15:03.375Z,23.89
2022-09-13T18:17:31.879Z,24.12
2022-09-13T18:20:00.288Z,23.95
2022-09-13T18:22:28.770Z,24.27
2022-09-13T18:24:57.266Z,24.30
2022-09-13T18:27:26.479Z,24.44
2022-09-13T18:29:55.138Z,24.31
2022-09-13T18:32:25.250Z,24.08
2022-09-13T18:34:54.166Z,24.25
2022-09-13T18:37:23.643Z,24.16
2022-09-13T18:39:53.221Z,24.54
2022-09-13T18:42:22.675Z,24.70
2022-09-13T18:44:54.026Z,24.54
2022-09-13T18:47:23.011Z,24.39
2022-09-13T18:49:53.230Z,24.47
2022-09-13T18:52:22.490Z,24.51
2022-09-13T18:54:52.023Z,24.83
2022-09-13T18:57:21.701Z,24.60
2022-09-13T18:59:50.867Z,24.65
2022-09-13T19:02:21.206Z,24.72
2022-09-13T19:04:51.179Z,25.12
2022-09-13T19:07:23.571Z,24.78
2022-09-13T19:09:53.530Z,25.28
2022-09-13T19:12:23.823Z,25.98
2022-09-13T19:14:55.545Z,25.54
2022-09-13T19:17:24.662Z,26.05
2022-09-13T19:19:55.178Z,26.60
2022-09-13T19:22:27.786Z,26.95
2022-09-13T19:24:57.161Z,27.09
2022-09-13T19:27:29.724Z,27.09
2022-09-13T19:29:59.336Z,26.96
2022-09-13T19:32:28.206Z,26.74
2022-09-13T19:34:57.946Z,26.85
2022-09-13T19:37:29.023Z,26.35
2022-09-13T19:39:59.656Z,26.74
2022-09-13T19:42:29.983Z,26.44
2022-09-13T19:45:00.322Z,26.61
2022-09-13T19:48:13.077Z,27.01
2022-09-13T19:50:19.694Z,26.84
2022-09-13T19:52:50.389Z,26.49
2022-09-13T19:55:21.512Z,27.15
2022-09-13T19:57:50.691Z,25.51
2022-09-13T20:00:20.551Z,26.48
2022-09-13T20:02:50.100Z,26.93
2022-09-13T20:05:19.836Z,26.63
2022-09-13T20:07:49.609Z,26.63
2022-09-13T20:10:18.242Z,26.76
2022-09-13T20:12:51.561Z,26.58
2022-09-13T20:15:24.586Z,27.09
2022-09-13T20:17:55.342Z,26.86
2022-09-13T20:20:26.561Z,26.81
2022-09-13T20:22:56.921Z,26.86
2022-09-13T20:25:25.514Z,27.15
2022-09-13T20:27:54.991Z,26.44
2022-09-13T20:30:24.631Z,26.90
2022-09-13T20:32:54.674Z,26.32
2022-09-13T20:35:23.634Z,26.44
2022-09-13T20:37:55.524Z,26.40
2022-09-13T20:40:26.728Z,26.61
2022-09-13T20:42:57.142Z,26.27
2022-09-13T20:45:26.358Z,26.49
2022-09-13T20:47:55.346Z,26.49
2022-09-13T20:50:24.773Z,26.57
2022-09-13T20:52:53.374Z,26.43
2022-09-13T20:55:21.534Z,26.55
2022-09-13T20:57:51.738Z,26.31
2022-09-13T21:00:19.956Z,26.67
2022-09-13T21:02:48.689Z,26.93
2022-09-13T21:05:18.820Z,26.63
2022-09-13T21:08:04.205Z,26.71
2022-09-13T21:10:32.673Z,26.51
2022-09-13T21:13:04.016Z,25.91
2022-09-13T21:15:32.242Z,26.01
2022-09-13T21:18:00.650Z,26.13
2022-09-13T21:20:29.258Z,26.45
2022-09-13T21:22:57.445Z,26.35
2022-09-13T21:25:25.920Z,26.18
2022-09-13T21:27:54.251Z,26.23
2022-09-13T21:30:24.040Z,25.89
2022-09-13T21:32:52.486Z,26.27
2022-09-13T21:35:20.812Z,26.19
2022-09-13T21:37:48.935Z,26.39
2022-09-13T21:40:17.653Z,26.34
2022-09-13T21:42:45.928Z,26.22
2022-09-13T21:45:14.258Z,26.45
2022-09-13T21:47:44.146Z,26.15
2022-09-13T21:50:12.465Z,26.42
2022-09-13T21:52:41.574Z,26.35
2022-09-13T21:55:10.438Z,26.82
2022-09-13T21:57:38.733Z,26.75
2022-09-13T22:00:09.314Z,26.55
2022-09-13T22:02:37.958Z,26.45
2022-09-13T22:05:08.291Z,26.09
2022-09-13T22:07:36.579Z,26.34
2022-09-13T22:10:05.367Z,26.51
2022-09-13T22:12:33.648Z,26.12
2022-09-13T22:15:01.811Z,26.35
2022-09-13T22:17:30.773Z,26.53
2022-09-13T22:19:58.866Z,26.21
2022-09-13T22:22:29.372Z,25.88
2022-09-13T22:24:57.665Z,26.45
2022-09-13T22:27:25.832Z,26.24
2022-09-13T22:29:53.912Z,26.09
2022-09-13T22:32:23.608Z,26.24
2022-09-13T22:34:53.438Z,26.14
2022-09-13T22:37:21.574Z,26.13
2022-09-13T22:39:51.463Z,25.87
2022-09-13T22:42:19.692Z,26.46
2022-09-13T22:44:48.292Z,26.32
2022-09-13T22:47:16.785Z,26.48
2022-09-13T22:49:45.010Z,26.16
2022-09-13T22:52:13.198Z,26.42
2022-09-13T22:54:41.910Z,26.13
2022-09-13T22:57:11.397Z,26.01
2022-09-13T22:59:39.648Z,26.23
2022-09-13T23:02:07.864Z,26.37
2022-09-13T23:04:36.009Z,26.03
2022-09-13T23:07:04.116Z,25.87
2022-09-13T23:09:32.421Z,26.00
2022-09-13T23:12:00.636Z,26.04
2022-09-13T23:14:30.042Z,25.74
2022-09-13T23:16:58.511Z,26.33
2022-09-13T23:19:28.242Z,26.10
2022-09-13T23:21:56.341Z,26.16
2022-09-13T23:24:25.222Z,25.69
2022-09-13T23:26:56.019Z,25.83
2022-09-13T23:29:24.435Z,25.69
2022-09-13T23:31:54.963Z,25.67
2022-09-13T23:34:23.646Z,25.82
2022-09-13T23:36:52.558Z,25.97
2022-09-13T23:39:21.837Z,25.61
2022-09-13T23:41:51.205Z,25.59
2022-09-13T23:44:19.396Z,25.75
2022-09-13T23:46:47.820Z,25.66
2022-09-13T23:49:17.362Z,25.18
2022-09-13T23:51:45.718Z,25.43
2022-09-13T23:54:15.241Z,25.40
2022-09-13T23:56:44.024Z,25.69
2022-09-13T23:59:13.615Z,25.10
